Time;durP1;ratioP1;P1;durP2;ratioP2;P2;SDS_P1;SDS_P2;PMS_P1;PMS_P2;Temp;Humidity;BMP_temperature;BMP_pressure;BME280_temperature;BME280_humidity;BME280_pressure;Samples;Min_cycle;Max_cycle;Signal;HPM_P1;HPM_P2
2023/08/22 00:00:46;;;;;;;5.95;4.25;;;27.00;99.90;;;;;;7390544;19;20154;-74
2023/08/22 00:03:12;;;;;;;5.68;4.20;;;27.00;99.90;;;;;;7394506;19;20134;-75
2023/08/22 00:05:38;;;;;;;4.43;4.00;;;27.00;99.90;;;;;;7393290;19;20131;-76
2023/08/22 00:08:05;;;;;;;5.47;3.80;;;27.00;99.90;;;;;;7393464;19;20157;-76
2023/08/22 00:10:34;;;;;;;4.85;3.65;;;27.00;99.90;;;;;;7392859;19;20138;-75
2023/08/22 00:13:01;;;;;;;6.20;3.92;;;27.00;99.90;;;;;;7394706;19;20131;-75
2023/08/22 00:15:26;;;;;;;4.82;4.28;;;27.00;99.90;;;;;;7393378;19;20139;-75
2023/08/22 00:17:52;;;;;;;3.92;3.55;;;27.00;99.90;;;;;;7391574;19;20633;-75
2023/08/22 00:20:18;;;;;;;6.30;4.20;;;26.80;99.90;;;;;;7389667;19;20158;-75
2023/08/22 00:22:44;;;;;;;4.60;3.50;;;26.70;99.90;;;;;;7392053;19;20139;-75
2023/08/22 00:25:11;;;;;;;4.75;3.75;;;26.70;99.90;;;;;;7391889;19;20175;-76
2023/08/22 00:27:37;;;;;;;5.90;4.15;;;26.70;99.90;;;;;;7392809;19;20138;-76
2023/08/22 00:30:04;;;;;;;6.00;3.90;;;26.70;99.90;;;;;;7390903;19;20150;-75
2023/08/22 00:32:30;;;;;;;8.27;4.20;;;26.80;99.90;;;;;;7391462;19;20154;-75
2023/08/22 00:34:56;;;;;;;5.80;4.03;;;26.80;99.90;;;;;;7393728;19;20143;-76
2023/08/22 00:37:22;;;;;;;4.75;4.05;;;26.80;99.90;;;;;;7393190;19;20563;-76
2023/08/22 00:39:48;;;;;;;5.40;4.10;;;26.80;99.90;;;;;;7391757;19;20135;-76
2023/08/22 00:42:14;;;;;;;6.00;3.67;;;26.80;99.90;;;;;;7390318;19;20127;-76
2023/08/22 00:44:40;;;;;;;5.22;3.65;;;26.80;99.90;;;;;;7391480;19;20135;-75
2023/08/22 00:47:06;;;;;;;7.20;3.50;;;26.80;99.90;;;;;;7390459;19;20226;-75
2023/08/22 00:49:33;;;;;;;5.53;4.00;;;26.50;99.90;;;;;;7388343;19;20241;-76
2023/08/22 00:52:03;;;;;;;5.43;3.58;;;26.50;99.90;;;;;;7389451;19;20134;-76
2023/08/22 00:54:29;;;;;;;4.28;3.75;;;26.50;99.90;;;;;;7390806;19;20471;-76
2023/08/22 00:56:56;;;;;;;4.80;3.80;;;26.20;99.90;;;;;;7389739;19;20147;-75
2023/08/22 00:59:26;;;;;;;6.63;3.83;;;26.30;99.90;;;;;;7390752;19;20135;-76
2023/08/22 01:01:52;;;;;;;5.15;4.00;;;26.50;99.90;;;;;;7390011;19;20599;-76
2023/08/22 01:04:19;;;;;;;4.43;3.83;;;26.50;99.90;;;;;;7388740;19;20158;-75
2023/08/22 01:07:19;;;;;;;6.28;4.03;;;26.40;99.90;;;;;;7391809;19;20234;-75
2023/08/22 01:09:53;;;;;;;4.50;3.88;;;26.50;99.90;;;;;;7391353;19;20143;-75
2023/08/22 01:12:44;;;;;;;4.47;3.72;;;26.50;99.90;;;;;;7383123;19;20130;-75
2023/08/22 01:15:13;;;;;;;5.35;3.97;;;26.50;99.90;;;;;;7385291;19;20466;-75
2023/08/22 01:17:42;;;;;;;4.60;3.78;;;26.30;99.90;;;;;;7392903;19;20145;-75
2023/08/22 01:20:11;;;;;;;7.57;3.65;;;26.00;99.90;;;;;;7388120;19;20167;-75
2023/08/22 01:22:39;;;;;;;4.53;3.67;;;26.20;99.90;;;;;;7391486;19;20159;-76
2023/08/22 01:25:06;;;;;;;4.28;3.72;;;26.20;99.90;;;;;;7391809;19;20161;-75
2023/08/22 01:27:39;;;;;;;5.40;4.32;;;25.90;99.90;;;;;;7390913;19;20138;-75
2023/08/22 01:30:21;;;;;;;7.05;4.22;;;25.60;99.90;;;;;;7390773;19;20150;-74
2023/08/22 01:32:50;;;;;;;4.18;3.78;;;25.60;99.90;;;;;;7390560;19;20186;-75
2023/08/22 01:35:21;;;;;;;4.82;4.20;;;25.80;99.90;;;;;;7390332;19;20135;-76
2023/08/22 01:37:48;;;;;;;4.45;3.78;;;25.90;99.90;;;;;;7388388;19;20145;-75
2023/08/22 01:40:15;;;;;;;6.00;3.72;;;25.80;99.90;;;;;;7387361;19;20135;-75
2023/08/22 01:42:41;;;;;;;4.18;3.78;;;26.00;99.90;;;;;;7390085;19;20691;-74
2023/08/22 01:45:07;;;;;;;6.22;4.15;;;26.10;99.90;;;;;;7389440;19;20213;-76
2023/08/22 01:47:35;;;;;;;5.82;4.00;;;26.10;99.90;;;;;;7389059;19;20255;-74
2023/08/22 01:50:04;;;;;;;4.57;3.85;;;25.90;99.90;;;;;;7388298;19;20130;-74
2023/08/22 01:52:30;;;;;;;5.80;4.10;;;25.90;99.90;;;;;;7388762;19;20134;-75
2023/08/22 01:54:56;;;;;;;4.72;4.20;;;25.90;99.90;;;;;;7390472;19;20134;-76
2023/08/22 01:57:22;;;;;;;4.35;3.95;;;26.10;99.90;;;;;;7388422;19;20127;-76
2023/08/22 01:59:47;;;;;;;4.82;3.65;;;26.20;99.90;;;;;;7387813;19;20856;-75
2023/08/22 02:02:13;;;;;;;5.55;3.90;;;26.10;99.90;;;;;;7388386;19;20134;-74
2023/08/22 02:04:39;;;;;;;3.97;3.50;;;26.10;99.90;;;;;;7386128;19;20154;-75
2023/08/22 02:07:04;;;;;;;6.55;4.10;;;26.00;99.90;;;;;;7388118;19;20161;-75
2023/08/22 02:09:30;;;;;;;5.88;4.32;;;26.10;99.90;;;;;;7388447;19;20134;-75
2023/08/22 02:11:56;;;;;;;4.45;4.05;;;26.00;99.90;;;;;;7388390;19;20165;-74
2023/08/22 02:14:21;;;;;;;4.60;3.70;;;26.00;99.90;;;;;;7389348;19;20135;-75
2023/08/22 02:16:47;;;;;;;3.97;3.28;;;25.70;99.90;;;;;;7388750;19;20134;-75
2023/08/22 02:19:13;;;;;;;5.25;3.88;;;25.90;99.90;;;;;;7386275;19;20514;-74
2023/08/22 02:21:38;;;;;;;6.10;4.13;;;25.90;99.90;;;;;;7386762;19;20146;-73
2023/08/22 02:24:06;;;;;;;4.28;3.75;;;25.90;99.90;;;;;;7389626;19;20127;-75
2023/08/22 02:26:33;;;;;;;3.88;3.47;;;25.70;99.90;;;;;;7390052;19;20137;-73
2023/08/22 02:29:02;;;;;;;5.68;3.70;;;25.70;99.90;;;;;;7388651;19;20607;-74
2023/08/22 02:31:29;;;;;;;3.85;3.45;;;25.60;99.90;;;;;;7387418;19;20475;-74
2023/08/22 02:33:54;;;;;;;5.22;3.78;;;25.20;99.90;;;;;;7387551;19;20146;-75
2023/08/22 02:36:20;;;;;;;4.93;3.45;;;25.10;99.90;;;;;;7387033;19;20150;-74
2023/08/22 02:38:46;;;;;;;4.10;3.70;;;25.10;99.90;;;;;;7386495;19;20654;-75
2023/08/22 02:41:14;;;;;;;6.78;3.92;;;25.20;99.90;;;;;;7385016;19;20160;-73
2023/08/22 02:43:39;;;;;;;5.32;4.03;;;25.20;99.90;;;;;;7387340;19;20134;-74
2023/08/22 02:46:05;;;;;;;4.20;3.80;;;25.30;99.90;;;;;;7390378;19;20697;-75
2023/08/22 02:48:31;;;;;;;7.13;4.90;;;25.40;99.90;;;;;;7387378;19;20154;-74
2023/08/22 02:50:57;;;;;;;8.00;5.05;;;25.50;99.90;;;;;;7387631;19;20153;-75
2023/08/22 02:53:23;;;;;;;6.53;4.75;;;25.60;99.90;;;;;;7383046;19;20138;-75
2023/08/22 02:55:49;;;;;;;8.40;4.32;;;25.60;99.90;;;;;;7390248;19;20214;-76
2023/08/22 02:58:14;;;;;;;6.35;4.30;;;25.60;99.90;;;;;;7388559;19;20146;-75
2023/08/22 03:00:40;;;;;;;5.82;4.40;;;25.60;99.90;;;;;;7383885;19;20217;-74
2023/08/22 03:03:06;;;;;;;6.13;4.88;;;25.60;99.90;;;;;;7386815;19;20614;-75
2023/08/22 03:05:32;;;;;;;7.30;4.65;;;25.40;99.90;;;;;;7386742;19;20146;-75
2023/08/22 03:07:57;;;;;;;5.57;4.85;;;25.20;99.90;;;;;;7386707;19;20130;-74
2023/08/22 03:10:23;;;;;;;5.43;4.93;;;25.00;99.90;;;;;;7389030;19;20177;-75
2023/08/22 03:12:50;;;;;;;7.80;4.88;;;25.10;99.90;;;;;;7387097;19;21915;-75
2023/08/22 03:15:16;;;;;;;5.15;4.47;;;25.00;99.90;;;;;;7388610;19;20174;-74
2023/08/22 03:17:42;;;;;;;6.63;4.68;;;25.10;99.90;;;;;;7387500;19;20130;-75
2023/08/22 03:20:08;;;;;;;8.02;4.90;;;24.90;99.90;;;;;;7384631;19;20145;-74
2023/08/22 03:22:33;;;;;;;6.53;4.68;;;25.10;99.90;;;;;;7385897;19;20156;-75
2023/08/22 03:24:59;;;;;;;7.22;5.00;;;25.30;99.90;;;;;;7386006;19;20814;-74
2023/08/22 03:27:25;;;;;;;6.28;5.22;;;25.20;99.90;;;;;;7386737;19;20134;-75
2023/08/22 03:29:50;;;;;;;7.05;4.93;;;25.10;99.90;;;;;;7386907;19;20587;-74
2023/08/22 03:32:16;;;;;;;6.90;4.68;;;25.20;99.90;;;;;;7388870;19;20135;-75
2023/08/22 03:34:42;;;;;;;6.72;4.90;;;25.30;99.90;;;;;;7392085;19;20154;-75
2023/08/22 03:37:08;;;;;;;8.32;4.68;;;25.40;99.90;;;;;;7392222;19;20140;-75
2023/08/22 03:39:33;;;;;;;5.65;5.05;;;25.50;99.90;;;;;;7390164;19;20164;-75
2023/08/22 03:41:59;;;;;;;9.75;5.38;;;25.50;99.90;;;;;;7393326;19;20619;-76
2023/08/22 03:44:25;;;;;;;6.03;5.28;;;25.40;99.90;;;;;;7392129;19;20139;-75
2023/08/22 03:46:51;;;;;;;5.05;4.53;;;25.50;99.90;;;;;;7393814;19;20194;-75
2023/08/22 03:49:17;;;;;;;6.57;4.45;;;25.50;99.90;;;;;;7391887;19;20161;-74
2023/08/22 03:51:42;;;;;;;4.90;3.83;;;25.50;99.90;;;;;;7392275;19;20150;-73
2023/08/22 03:54:08;;;;;;;5.60;4.18;;;25.50;99.90;;;;;;7392238;19;20135;-75
2023/08/22 03:56:35;;;;;;;6.43;4.35;;;25.40;99.90;;;;;;7393317;19;20138;-74
2023/08/22 03:59:01;;;;;;;5.22;3.83;;;25.50;99.90;;;;;;7390944;19;20202;-74
2023/08/22 04:01:27;;;;;;;5.93;4.28;;;25.50;99.90;;;;;;7392932;19;20158;-74
2023/08/22 04:03:52;;;;;;;5.47;3.75;;;25.30;99.90;;;;;;7393001;19;20728;-74
2023/08/22 04:06:18;;;;;;;5.15;3.88;;;25.30;99.90;;;;;;7393560;19;20131;-75
2023/08/22 04:08:44;;;;;;;5.75;4.13;;;25.30;99.90;;;;;;7393215;19;20482;-75
2023/08/22 04:11:10;;;;;;;6.47;3.80;;;25.20;99.90;;;;;;7391635;19;20137;-74
2023/08/22 04:13:35;;;;;;;3.75;3.35;;;25.20;99.90;;;;;;7391200;19;20150;-73
2023/08/22 04:16:01;;;;;;;4.43;4.03;;;25.20;99.90;;;;;;7391350;19;20619;-76
2023/08/22 04:18:27;;;;;;;6.32;4.28;;;25.30;99.90;;;;;;7392622;19;20141;-75
2023/08/22 04:20:52;;;;;;;7.00;4.20;;;25.20;99.90;;;;;;7387869;19;20491;-74
2023/08/22 04:23:18;;;;;;;5.03;3.97;;;24.90;99.90;;;;;;7392330;19;20165;-75
2023/08/22 04:25:44;;;;;;;4.00;3.58;;;24.60;99.90;;;;;;7389255;19;20678;-74
2023/08/22 04:28:10;;;;;;;6.18;4.07;;;24.50;99.90;;;;;;7393219;19;20131;-75
2023/08/22 04:30:35;;;;;;;5.68;4.10;;;24.60;99.90;;;;;;7388712;19;20134;-76
2023/08/22 04:33:03;;;;;;;4.25;3.60;;;24.60;99.90;;;;;;7391518;19;20150;-73
2023/08/22 04:35:32;;;;;;;6.25;4.38;;;24.60;99.90;;;;;;7389682;19;20286;-75
2023/08/22 04:38:00;;;;;;;5.22;4.63;;;24.70;99.90;;;;;;7390603;19;20243;-75
2023/08/22 04:40:26;;;;;;;5.20;4.70;;;24.60;99.90;;;;;;7387828;19;20139;-73
2023/08/22 04:42:52;;;;;;;5.80;4.38;;;24.70;99.90;;;;;;7389698;19;20545;-74
2023/08/22 04:45:17;;;;;;;5.32;4.07;;;24.50;99.90;;;;;;7387640;19;20210;-74
2023/08/22 04:47:43;;;;;;;4.85;4.35;;;24.60;99.90;;;;;;7393111;19;20519;-75
2023/08/22 04:50:09;;;;;;;5.40;4.28;;;24.70;99.90;;;;;;7390380;19;20137;-75
2023/08/22 04:52:35;;;;;;;7.15;4.88;;;24.80;99.90;;;;;;7391411;19;20131;-74
2023/08/22 04:55:01;;;;;;;6.13;4.95;;;25.00;99.90;;;;;;7391284;19;20134;-74
2023/08/22 04:57:27;;;;;;;7.03;4.85;;;24.70;99.90;;;;;;7392917;19;20131;-75
2023/08/22 04:59:53;;;;;;;7.18;5.00;;;24.80;99.90;;;;;;7388636;19;20126;-75
2023/08/22 05:02:21;;;;;;;8.35;5.03;;;24.90;99.90;;;;;;7391266;19;20127;-74
2023/08/22 05:04:48;;;;;;;4.93;4.43;;;25.00;99.90;;;;;;7389206;19;20178;-74
2023/08/22 05:07:13;;;;;;;7.07;4.90;;;25.10;99.90;;;;;;7391799;19;20155;-74
2023/08/22 05:09:39;;;;;;;6.60;4.15;;;25.30;99.90;;;;;;7392031;19;20623;-75
2023/08/22 05:12:05;;;;;;;6.32;4.40;;;25.30;99.90;;;;;;7390647;19;20185;-75
2023/08/22 05:14:33;;;;;;;7.32;4.57;;;25.30;99.90;;;;;;7391173;19;20147;-74
2023/08/22 05:16:59;;;;;;;5.35;4.00;;;25.30;99.90;;;;;;7391287;19;20143;-74
2023/08/22 05:19:24;;;;;;;5.03;4.28;;;25.20;99.90;;;;;;7389324;19;20475;-76
2023/08/22 05:21:50;;;;;;;5.60;3.95;;;25.20;99.90;;;;;;7391182;19;20142;-76
2023/08/22 05:24:16;;;;;;;5.28;3.90;;;25.10;99.90;;;;;;7389144;19;20135;-75
2023/08/22 05:26:41;;;;;;;7.15;4.43;;;25.10;99.90;;;;;;7391142;19;20149;-75
2023/08/22 05:29:07;;;;;;;7.40;4.15;;;25.20;99.90;;;;;;7391203;19;20142;-74
2023/08/22 05:31:34;;;;;;;6.38;4.28;;;25.20;99.90;;;;;;7387690;19;20145;-82
2023/08/22 05:34:01;;;;;;;6.20;4.72;;;25.20;99.90;;;;;;7393736;19;20901;-82
2023/08/22 05:36:26;;;;;;;5.82;4.75;;;25.20;99.90;;;;;;7392810;19;20179;-81
2023/08/22 05:38:53;;;;;;;7.70;4.60;;;25.30;99.90;;;;;;7394234;19;20142;-81
2023/08/22 05:41:19;;;;;;;5.78;4.15;;;25.30;99.90;;;;;;7390425;19;20718;-80
2023/08/22 05:43:44;;;;;;;6.28;4.57;;;25.30;99.90;;;;;;7391529;19;20526;-79
2023/08/22 05:46:10;;;;;;;4.53;4.13;;;25.20;99.90;;;;;;7388946;19;20168;-75
2023/08/22 05:48:36;;;;;;;6.45;4.47;;;25.30;99.90;;;;;;7390797;19;20620;-78
2023/08/22 05:51:02;;;;;;;5.18;4.22;;;25.20;99.90;;;;;;7387425;19;20173;-78
2023/08/22 05:53:29;;;;;;;4.75;4.32;;;25.20;99.90;;;;;;7388054;19;20163;-77
2023/08/22 05:55:55;;;;;;;7.00;4.35;;;25.20;99.90;;;;;;7381576;19;20185;-78
2023/08/22 05:58:21;;;;;;;7.20;4.43;;;25.20;99.90;;;;;;7387228;19;20137;-78
2023/08/22 06:00:47;;;;;;;5.15;4.38;;;25.20;99.90;;;;;;7385328;19;20142;-77
2023/08/22 06:03:13;;;;;;;8.23;4.22;;;25.10;99.90;;;;;;7385698;19;20488;-77
2023/08/22 06:05:40;;;;;;;7.00;4.43;;;25.20;99.90;;;;;;7387231;19;20162;-77
2023/08/22 06:08:06;;;;;;;6.60;4.53;;;25.20;99.90;;;;;;7382275;19;20183;-79
2023/08/22 06:10:32;;;;;;;7.15;4.13;;;25.20;99.90;;;;;;7385258;19;20214;-79
2023/08/22 06:12:58;;;;;;;4.35;3.95;;;25.30;99.90;;;;;;7384953;19;20154;-77
2023/08/22 06:15:23;;;;;;;5.18;4.22;;;25.30;99.90;;;;;;7387782;19;20186;-77
2023/08/22 06:17:49;;;;;;;6.45;4.53;;;25.30;99.90;;;;;;7389869;19;20131;-78
2023/08/22 06:20:15;;;;;;;5.10;4.38;;;25.30;99.90;;;;;;7381551;19;20131;-75
2023/08/22 06:22:41;;;;;;;5.90;4.72;;;25.30;99.90;;;;;;7388572;19;20154;-75
2023/08/22 06:25:07;;;;;;;6.65;4.85;;;25.40;99.90;;;;;;7386946;19;20146;-76
2023/08/22 06:27:33;;;;;;;5.88;4.80;;;25.30;99.90;;;;;;7388202;19;20176;-77
2023/08/22 06:29:59;;;;;;;8.38;5.03;;;25.20;99.90;;;;;;7384117;19;20599;-81
2023/08/22 06:32:25;;;;;;;7.25;4.97;;;25.20;99.90;;;;;;7387001;19;20553;-80
2023/08/22 06:34:51;;;;;;;6.30;5.70;;;25.40;99.90;;;;;;7386784;19;20159;-79
2023/08/22 06:37:17;;;;;;;6.07;4.63;;;25.40;99.90;;;;;;7388559;19;20153;-79
2023/08/22 06:39:42;;;;;;;8.63;4.97;;;25.40;99.90;;;;;;7378374;19;20135;-77
2023/08/22 06:42:08;;;;;;;9.13;4.70;;;25.60;99.90;;;;;;7382942;19;20134;-78
2023/08/22 06:44:34;;;;;;;8.63;5.75;;;25.50;99.90;;;;;;7384572;19;20586;-78
2023/08/22 06:46:59;;;;;;;5.90;4.55;;;25.40;99.90;;;;;;7388464;19;20150;-77
2023/08/22 06:49:25;;;;;;;5.25;4.70;;;25.40;99.90;;;;;;7386776;19;20146;-77
2023/08/22 06:51:51;;;;;;;6.28;4.65;;;25.50;99.90;;;;;;7387732;19;20145;-77
2023/08/22 06:54:17;;;;;;;5.68;4.18;;;25.70;99.90;;;;;;7385370;19;20138;-78
2023/08/22 06:56:42;;;;;;;4.95;3.97;;;25.80;99.90;;;;;;7386901;19;20131;-77
2023/08/22 06:59:09;;;;;;;5.15;4.25;;;26.00;99.90;;;;;;7384422;19;20139;-77
2023/08/22 07:01:35;;;;;;;4.70;4.25;;;26.20;99.90;;;;;;7386521;19;20166;-77
2023/08/22 07:04:01;;;;;;;6.55;4.25;;;26.60;99.90;;;;;;7384603;19;20230;-77
2023/08/22 07:06:26;;;;;;;6.25;3.70;;;27.20;99.90;;;;;;7386760;19;20227;-78
2023/08/22 07:08:52;;;;;;;4.93;4.20;;;27.80;99.90;;;;;;7391213;19;20134;-78
2023/08/22 07:11:18;;;;;;;6.63;4.07;;;28.70;99.90;;;;;;7392155;19;20137;-78
2023/08/22 07:15:19;;;;;;;;;;;;;;;;;;;;;
2023/08/22 07:38:47;;;;;;;4.07;3.42;;;31.70;99.90;;;;;;7384654;19;20229;-80
2023/08/22 07:41:13;;;;;;;6.38;3.90;;;32.40;99.90;;;;;;7385005;19;20147;-78
2023/08/22 07:43:38;;;;;;;4.35;3.88;;;32.30;99.90;;;;;;7388181;19;20138;-80
2023/08/22 07:46:04;;;;;;;6.90;5.07;;;31.90;99.90;;;;;;7391917;19;20153;-78
2023/08/22 07:48:31;;;;;;;4.63;4.05;;;31.60;99.90;;;;;;7390872;19;20441;-78
2023/08/22 07:50:57;;;;;;;5.00;4.05;;;31.40;99.90;;;;;;7391253;19;20169;-76
2023/08/22 07:53:24;;;;;;;5.72;3.63;;;31.40;99.90;;;;;;7392191;19;20206;-78
2023/08/22 07:55:50;;;;;;;5.70;3.75;;;31.80;99.90;;;;;;7389798;19;20131;-79
2023/08/22 07:58:16;;;;;;;4.63;4.13;;;32.40;99.90;;;;;;7385273;19;20127;-79
2023/08/22 08:00:49;;;;;;;5.38;4.28;;;32.70;99.90;;;;;;7385221;19;20234;-79
2023/08/22 08:03:15;;;;;;;6.15;4.10;;;32.30;99.90;;;;;;7387900;19;20150;-78
2023/08/22 08:05:40;;;;;;;8.10;5.28;;;32.70;99.90;;;;;;7387468;19;20151;-77
2023/08/22 08:08:07;;;;;;;5.15;4.65;;;32.60;99.90;;;;;;7388692;19;20136;-77
2023/08/22 08:10:34;;;;;;;5.18;4.68;;;32.80;99.90;;;;;;7390532;19;20167;-78
2023/08/22 08:13:00;;;;;;;6.78;4.15;;;32.80;99.90;;;;;;7392286;19;20143;-78
2023/08/22 08:15:27;;;;;;;5.03;4.10;;;32.70;99.90;;;;;;7388794;19;20902;-78
2023/08/22 08:17:53;;;;;;;4.57;3.75;;;32.40;99.90;;;;;;7390535;19;20173;-77
2023/08/22 08:20:19;;;;;;;6.30;4.05;;;32.40;99.90;;;;;;7386396;19;20138;-77
2023/08/22 08:22:44;;;;;;;5.13;3.95;;;32.30;99.90;;;;;;7390351;19;20187;-78
2023/08/22 08:25:11;;;;;;;4.30;3.75;;;32.30;99.90;;;;;;7388922;19;20531;-78
2023/08/22 08:27:37;;;;;;;8.63;6.30;;;31.90;99.90;;;;;;7391358;19;20563;-78
2023/08/22 08:30:05;;;;;;;6.85;4.50;;;31.50;99.90;;;;;;7388612;19;20155;-78
2023/08/22 08:32:32;;;;;;;5.72;4.68;;;31.50;99.90;;;;;;7387652;19;20154;-77
2023/08/22 08:34:57;;;;;;;8.88;4.53;;;31.50;99.90;;;;;;7390252;19;20613;-76
2023/08/22 08:37:23;;;;;;;5.72;3.63;;;31.30;99.90;;;;;;7389635;19;20145;-77
2023/08/22 08:39:49;;;;;;;3.85;3.22;;;30.90;99.90;;;;;;7390028;19;20550;-76
2023/08/22 08:42:15;;;;;;;3.75;3.35;;;30.80;99.90;;;;;;7389298;19;20459;-78
2023/08/22 08:44:41;;;;;;;10.98;3.83;;;30.80;99.90;;;;;;7390189;19;20234;-77
2023/08/22 08:47:10;;;;;;;4.07;3.28;;;30.60;99.90;;;;;;7387931;19;20142;-77
2023/08/22 08:49:38;;;;;;;6.07;2.50;;;30.50;99.90;;;;;;7388813;19;20146;-78
2023/08/22 08:52:07;;;;;;;4.10;2.97;;;30.40;99.90;;;;;;7387819;19;20131;-77
2023/08/22 08:54:33;;;;;;;3.58;3.22;;;30.20;99.90;;;;;;7388526;19;20173;-79
2023/08/22 08:56:59;;;;;;;4.35;3.30;;;30.10;99.90;;;;;;7388958;19;20638;-77
2023/08/22 08:59:26;;;;;;;6.85;3.90;;;30.00;99.90;;;;;;7387199;19;20150;-76
2023/08/22 09:02:04;;;;;;;3.72;2.97;;;30.10;99.90;;;;;;7389087;19;20130;-77
2023/08/22 09:04:31;;;;;;;3.22;2.92;;;30.10;99.90;;;;;;7386422;19;20177;-76
2023/08/22 09:07:25;;;;;;;4.10;3.25;;;30.30;99.90;;;;;;7388367;19;20154;-78
2023/08/22 09:09:51;;;;;;;3.13;2.80;;;30.60;99.90;;;;;;7388271;19;20134;-79
2023/08/22 09:16:25;;;;;;;6.45;3.25;;;31.30;99.90;;;;;;7385868;19;20532;-78
2023/08/22 09:19:01;;;;;;;;;;;;;;;;;;;;;
2023/08/22 09:22:25;;;;;;;5.20;3.67;;;30.50;99.90;;;;;;7387548;19;20142;-78
2023/08/22 09:24:53;;;;;;;3.70;3.10;;;30.50;99.90;;;;;;7384328;19;20861;-77
2023/08/22 09:27:34;;;;;;;3.25;2.92;;;30.50;99.90;;;;;;7385797;19;20456;-76
2023/08/22 09:30:04;;;;;;;3.78;3.10;;;30.40;99.90;;;;;;7387899;19;20169;-76
2023/08/22 09:32:30;;;;;;;3.13;2.83;;;30.30;99.90;;;;;;7385689;19;20616;-76
2023/08/22 09:34:58;;;;;;;3.83;3.05;;;30.50;99.90;;;;;;7386949;19;20142;-76
2023/08/22 09:37:37;;;;;;;4.25;3.10;;;30.50;99.90;;;;;;7387092;19;20469;-77
2023/08/22 09:40:09;;;;;;;4.22;3.10;;;30.60;99.90;;;;;;7385343;19;20164;-76
2023/08/22 09:42:39;;;;;;;4.90;3.55;;;30.70;99.90;;;;;;7387879;19;20678;-77
2023/08/22 09:45:06;;;;;;;3.85;3.45;;;30.60;99.90;;;;;;7387207;19;20138;-76
2023/08/22 09:47:39;;;;;;;4.22;3.40;;;30.60;99.90;;;;;;7387568;19;20147;-76
2023/08/22 09:50:07;;;;;;;3.67;3.03;;;30.40;99.90;;;;;;7387254;19;20593;-75
2023/08/22 09:52:39;;;;;;;5.65;3.55;;;30.40;99.90;;;;;;7387457;19;20126;-77
2023/08/22 09:55:09;;;;;;;7.78;3.97;;;30.60;99.90;;;;;;7386196;19;20139;-77
2023/08/22 10:00:57;;;;;;;3.75;3.17;;;30.70;99.90;;;;;;7385424;19;20139;-81
2023/08/22 10:03:24;;;;;;;3.97;3.30;;;30.80;99.90;;;;;;7387453;19;20142;-78
2023/08/22 10:05:51;;;;;;;4.72;3.17;;;30.90;99.90;;;;;;7382392;19;20134;-77
2023/08/22 10:08:17;;;;;;;5.03;3.20;;;31.10;99.90;;;;;;7387711;19;20167;-77
2023/08/22 10:10:44;;;;;;;6.07;3.40;;;31.20;99.90;;;;;;7385984;19;20138;-77
2023/08/22 10:13:11;;;;;;;3.53;3.13;;;31.00;99.90;;;;;;7386719;19;20662;-77
2023/08/22 10:15:39;;;;;;;5.00;2.85;;;30.90;99.90;;;;;;7387225;19;20694;-77
2023/08/22 10:18:05;;;;;;;3.63;2.95;;;30.80;99.90;;;;;;7388617;19;20146;-77
2023/08/22 10:20:34;;;;;;;3.58;2.92;;;30.80;99.90;;;;;;7385430;19;20933;-78
2023/08/22 10:23:00;;;;;;;2.80;2.55;;;30.80;99.90;;;;;;7387234;19;20138;-77
2023/08/22 10:25:48;;;;;;;3.80;3.05;;;30.80;99.90;;;;;;7382412;19;20496;-79
2023/08/22 10:28:15;;;;;;;5.93;4.03;;;30.90;99.90;;;;;;7388469;19;20445;-79
2023/08/22 10:31:02;;;;;;;3.85;3.35;;;30.90;99.90;;;;;;7384572;19;20138;-79
2023/08/22 10:33:28;;;;;;;4.28;2.80;;;31.10;99.90;;;;;;7383138;19;20154;-78
2023/08/22 10:36:13;;;;;;;5.80;4.70;;;31.10;99.90;;;;;;7388032;19;20141;-78
2023/08/22 10:38:52;;;;;;;4.53;3.17;;;31.00;99.90;;;;;;7385610;19;20146;-78
2023/08/22 10:41:21;;;;;;;4.55;3.00;;;31.10;99.90;;;;;;7385680;19;20151;-78
2023/08/22 10:43:47;;;;;;;3.20;2.90;;;31.00;99.90;;;;;;7381352;19;20145;-76
2023/08/22 10:46:15;;;;;;;3.22;2.70;;;31.10;99.90;;;;;;7385775;19;20430;-77
2023/08/22 10:48:41;;;;;;;3.30;2.83;;;31.20;99.90;;;;;;7384889;19;20150;-78
2023/08/22 10:51:09;;;;;;;4.88;3.05;;;31.30;99.90;;;;;;7387830;19;20139;-75
2023/08/22 10:53:44;;;;;;;3.47;3.08;;;31.20;99.90;;;;;;7385435;19;20139;-76
2023/08/22 10:56:23;;;;;;;3.80;3.22;;;31.30;99.90;;;;;;7388142;19;20149;-76
2023/08/22 10:59:00;;;;;;;6.63;2.90;;;31.30;99.90;;;;;;7390219;19;20142;-77
2023/08/22 11:01:27;;;;;;;4.38;2.78;;;31.30;99.90;;;;;;7388586;19;20602;-76
2023/08/22 11:03:55;;;;;;;3.72;3.17;;;31.30;99.90;;;;;;7386819;19;20707;-77
2023/08/22 11:06:23;;;;;;;4.55;3.13;;;31.30;99.90;;;;;;7387728;19;20149;-81
2023/08/22 11:08:50;;;;;;;4.18;2.80;;;31.30;99.90;;;;;;7385718;19;20150;-77
2023/08/22 11:11:19;;;;;;;5.30;3.53;;;31.20;99.90;;;;;;7388536;19;20138;-75
2023/08/22 11:13:46;;;;;;;4.53;2.83;;;31.20;99.90;;;;;;7386446;19;20131;-77
2023/08/22 11:16:17;;;;;;;2.97;2.58;;;31.00;99.90;;;;;;7388672;19;20210;-78
2023/08/22 11:18:45;;;;;;;3.63;2.85;;;31.00;99.90;;;;;;7388707;19;20134;-77
2023/08/22 11:21:11;;;;;;;3.95;3.47;;;31.00;99.90;;;;;;7383339;19;20131;-78
2023/08/22 11:23:37;;;;;;;3.28;2.80;;;31.20;99.90;;;;;;7383234;19;20165;-76
2023/08/22 11:26:07;;;;;;;3.45;3.15;;;31.30;99.90;;;;;;7385061;19;20595;-77
2023/08/22 11:28:34;;;;;;;5.85;2.90;;;31.30;99.90;;;;;;7385003;19;20158;-77
2023/08/22 11:31:01;;;;;;;3.65;3.03;;;31.30;99.90;;;;;;7385309;19;20234;-77
2023/08/22 11:33:44;;;;;;;5.03;3.22;;;31.30;99.90;;;;;;7385596;19;20139;-76
2023/08/22 11:36:10;;;;;;;3.03;2.72;;;31.40;99.90;;;;;;7383641;19;20147;-78
2023/08/22 11:38:36;;;;;;;5.00;3.38;;;31.30;99.90;;;;;;7383293;19;20155;-78
2023/08/22 11:41:04;;;;;;;3.13;2.83;;;31.30;99.90;;;;;;7379311;19;20805;-78
2023/08/22 11:43:30;;;;;;;3.25;2.88;;;31.20;99.90;;;;;;7378466;19;20172;-77
2023/08/22 11:45:56;;;;;;;3.03;2.72;;;31.20;99.90;;;;;;7378966;19;20595;-78
2023/08/22 11:48:23;;;;;;;5.63;3.22;;;31.50;99.90;;;;;;7379791;19;20249;-77
2023/08/22 11:50:50;;;;;;;3.97;3.03;;;31.80;99.90;;;;;;7383069;19;20162;-78
2023/08/22 11:53:16;;;;;;;3.83;2.63;;;32.00;99.90;;;;;;7385893;19;20130;-78
2023/08/22 11:55:44;;;;;;;6.28;2.75;;;32.10;99.90;;;;;;7390173;19;20126;-77
2023/08/22 11:58:13;;;;;;;3.78;2.90;;;32.20;99.90;;;;;;7392362;19;20158;-78
2023/08/22 12:00:39;;;;;;;3.58;3.08;;;32.30;99.90;;;;;;7388086;19;20139;-78
2023/08/22 12:03:05;;;;;;;5.55;3.60;;;32.20;99.90;;;;;;7392304;19;20146;-79
2023/08/22 12:05:45;;;;;;;4.80;2.70;;;32.10;99.90;;;;;;7392691;19;20147;-78
2023/08/22 12:08:14;;;;;;;5.07;3.17;;;32.00;99.90;;;;;;7391368;19;20145;-78
2023/08/22 12:10:50;;;;;;;4.82;2.88;;;32.00;99.90;;;;;;7388579;19;20138;-79
2023/08/22 12:13:23;;;;;;;3.70;2.97;;;32.00;99.90;;;;;;7390784;19;20130;-77
2023/08/22 12:15:50;;;;;;;3.10;2.45;;;32.00;99.90;;;;;;7390877;19;20131;-79
2023/08/22 12:18:17;;;;;;;3.65;2.38;;;32.00;99.90;;;;;;7390464;19;20142;-78
2023/08/22 12:20:43;;;;;;;3.38;2.90;;;32.00;99.90;;;;;;7389225;19;20146;-80
2023/08/22 12:23:11;;;;;;;3.55;2.40;;;32.00;99.90;;;;;;7390765;19;20142;-79
2023/08/22 12:25:39;;;;;;;3.35;2.92;;;32.00;99.90;;;;;;7388508;19;20131;-78
2023/08/22 12:28:06;;;;;;;3.75;2.55;;;32.10;99.90;;;;;;7389879;19;20488;-78
2023/08/22 12:30:33;;;;;;;4.65;2.90;;;32.10;99.90;;;;;;7388405;19;20131;-79
2023/08/22 12:33:05;;;;;;;4.60;3.00;;;32.00;99.90;;;;;;7390861;19;20141;-81
2023/08/22 12:35:36;;;;;;;3.30;2.67;;;32.00;99.90;;;;;;7389655;19;20177;-78
2023/08/22 12:38:05;;;;;;;4.85;3.13;;;31.90;99.90;;;;;;7387504;19;20144;-79
2023/08/22 12:40:30;;;;;;;4.70;2.80;;;31.80;99.90;;;;;;7387347;19;20166;-80
2023/08/22 12:42:59;;;;;;;3.28;2.55;;;31.80;99.90;;;;;;7391428;19;20152;-79
2023/08/22 12:45:25;;;;;;;8.52;3.90;;;31.80;99.90;;;;;;7388659;19;20157;-78
2023/08/22 12:47:51;;;;;;;4.07;3.05;;;31.80;99.90;;;;;;7388394;19;20150;-77
2023/08/22 12:50:17;;;;;;;5.35;2.90;;;31.80;99.90;;;;;;7388130;19;20571;-77
2023/08/22 12:52:43;;;;;;;4.60;2.42;;;31.80;99.90;;;;;;7391221;19;20531;-77
2023/08/22 12:55:09;;;;;;;4.55;2.83;;;32.00;99.90;;;;;;7387354;19;20143;-78
2023/08/22 12:57:37;;;;;;;2.90;2.60;;;32.10;99.90;;;;;;7385150;19;20149;-78
2023/08/22 13:00:03;;;;;;;3.30;2.53;;;32.10;99.90;;;;;;7385003;19;20134;-79
2023/08/22 13:02:29;;;;;;;3.55;2.70;;;32.10;99.90;;;;;;7386593;19;20154;-78
2023/08/22 13:04:55;;;;;;;4.05;2.95;;;32.00;99.90;;;;;;7382805;19;20150;-77
2023/08/22 13:07:21;;;;;;;3.97;2.67;;;31.90;99.90;;;;;;7384402;19;20205;-77
2023/08/22 13:09:46;;;;;;;3.00;2.45;;;31.80;99.90;;;;;;7388928;19;20151;-78
2023/08/22 13:12:12;;;;;;;4.10;3.13;;;31.70;99.90;;;;;;7387483;19;20150;-77
2023/08/22 13:14:39;;;;;;;5.50;3.00;;;31.80;99.90;;;;;;7388571;19;20165;-78
2023/08/22 13:17:05;;;;;;;5.28;2.47;;;31.80;99.90;;;;;;7388460;19;20135;-78
2023/08/22 13:19:31;;;;;;;5.72;2.95;;;31.70;99.90;;;;;;7387934;19;20217;-78